This is the latest recevied weather packets stored in our database for station/object KN6KS. If no packets are shown the sender has not sent any weather packets the latest 10 day(s).
| Time | Temp. | Humidity | Pressure | Rain* | Wind** | Luminosity | Snow |
|---|---|---|---|---|---|---|---|
| 1777806247 | 15° C | 66% | 1010.4 hPa | 0 mm | - | 0 W/m² | - |
| 1777805944 | 15.56° C | 62% | 1010.4 hPa | 0 mm | - | 0 W/m² | - |
| 1777805641 | 16.11° C | 60% | 1010.5 hPa | 0 mm | - | 0 W/m² | - |
| 1777805338 | 16.67° C | 56% | 1010.3 hPa | 0 mm | - | 0 W/m² | - |
| 1777805036 | 16.67° C | 53% | 1010.3 hPa | 0 mm | - | 0 W/m² | - |
| 1777804733 | 17.22° C | 52% | 1010.1 hPa | 0 mm | - | 0 W/m² | - |
| 1777804431 | 17.22° C | 52% | 1010.1 hPa | 0 mm | - | 0 W/m² | - |
| 1777804128 | 17.22° C | 53% | 1010.1 hPa | 0 mm | - | 0 W/m² | - |
| 1777803825 | 17.22° C | 52% | 1010.1 hPa | 0 mm | - | 0 W/m² | - |
| 1777803520 | 17.22° C | 54% | 1010.1 hPa | 0 mm | - | 0 W/m² | - |
| 1777803218 | 17.22° C | 56% | 1010 hPa | 0 mm | - | 0 W/m² | - |
| 1777802915 | 17.22° C | 56% | 1010 hPa | 0 mm | - | 0 W/m² | - |
| 1777802613 | 16.67° C | 57% | 1010.1 hPa | 0 mm | - | 0 W/m² | - |
| 1777802310 | 16.67° C | 60% | 1010 hPa | 0 mm | - | 0 W/m² | - |
| 1777802009 | 16.67° C | 62% | 1010.1 hPa | 0 mm | - | 0 W/m² | - |
| 1777801706 | 16.67° C | 63% | 1010.1 hPa | 0 mm | - | 0 W/m² | - |
| 1777801403 | 16.67° C | 63% | 1010.2 hPa | 0 mm | - | 0 W/m² | - |
| 1777801099 | 16.67° C | 64% | 1010.3 hPa | 0 mm | - | 0 W/m² | - |
| 1777800796 | 16.67° C | 63% | 1010.3 hPa | 0 mm | - | 0 W/m² | - |
| 1777800491 | 16.67° C | 62% | 1010.3 hPa | 0 mm | - | 0 W/m² | - |
| 1777800189 | 16.67° C | 63% | 1010.3 hPa | 0 mm | - | 0 W/m² | - |
| 1777799888 | 16.67° C | 63% | 1010.5 hPa | 0 mm | - | 0 W/m² | - |
| 1777799586 | 16.67° C | 64% | 1010.6 hPa | 0 mm | - | 0 W/m² | - |
| 1777799282 | 16.11° C | 66% | 1010.7 hPa | 0 mm | - | 0 W/m² | - |
| 1777798978 | 15.56° C | 70% | 1010.7 hPa | 0 mm | - | 0 W/m² | - |
* Rain latest hour (hover to see other rain measurements)
** Current wind speed in m/s (hover to see current wind gust speed)